上海/浦東 の空港の天気 - METARとTAF

上海浦東国際空港 ( ZSPD / PVG ) - 中国 上海市
飛行場実況気象(Metar)
観測時間10/16 15:30 CST (10/16 07:30 UTC)
風向・風速北北東 5m/s
視程10km以上
天気現象
なし
気温20℃
湿度68%
気圧1024hPa
METARZSPD 160730Z 02005MPS CAVOK 20/14 Q1024 NOSIG
過去の天気等 Google飛行場航空写真 Wunderground天気予報

過去48時間のMETAR

飛行場予報(TAF)
発表時間: 10/16 11:19 CST (10/16 03:19 UTC)
予報対象時間: 16日14時 CST ~ 17日14時 CST
風向・風速北北東 4m/s
視程6000m
全天の4割程度の雲 雲底高度 610m
TAF ZSPD 160319Z 1606/1706 02004MPS 6000 SCT020 TX23/1606Z TN15/1621Z